Time;durP1;ratioP1;P1;durP2;ratioP2;P2;SDS_P1;SDS_P2;PMS_P1;PMS_P2;Temp;Humidity;BMP_temperature;BMP_pressure;BME280_temperature;BME280_humidity;BME280_pressure;Samples;Min_cycle;Max_cycle;Signal;HPM_P1;HPM_P2
2021/03/05 00:02:08;;;;;;;12.43;2.80;;;;;;;-144.99;92.66;52395.09;4988625;28;20196;-73
2021/03/05 00:04:34;;;;;;;2.13;1.07;;;;;;;-144.99;93.03;52382.88;4989585;28;20649;-75
2021/03/05 00:07:00;;;;;;;7.80;1.80;;;;;;;-144.99;93.04;52423.63;4988414;28;20666;-73
2021/03/05 00:09:26;;;;;;;4.83;1.53;;;;;;;-144.99;93.08;52382.88;4989393;23;20990;-73
2021/03/05 00:11:52;;;;;;;5.60;1.40;;;;;;;-144.99;93.24;52386.94;4976887;28;21279;-73
2021/03/05 00:14:18;;;;;;;3.43;1.23;;;;;;;-144.99;93.43;52409.38;4981574;28;20623;-73
2021/03/05 00:16:44;;;;;;;5.57;1.50;;;;;;;-144.99;93.55;52386.94;4983437;28;20216;-73
2021/03/05 00:19:10;;;;;;;4.43;1.23;;;;;;;-144.99;93.49;52376.75;4980197;28;20228;-73
2021/03/05 00:21:37;;;;;;;7.47;1.50;;;;;;;-144.99;93.61;52391.03;4971548;28;20636;-74
2021/03/05 00:24:03;;;;;;;4.60;1.40;;;;;;;-144.99;93.58;52362.50;4970862;28;20685;-73
2021/03/05 00:26:29;;;;;;;5.50;1.70;;;;;;;-144.99;93.61;52397.13;4969968;28;20627;-74
2021/03/05 00:28:55;;;;;;;8.20;2.03;;;;;;;-144.99;93.54;52358.41;4958156;28;20691;-74
2021/03/05 00:31:21;;;;;;;9.53;2.83;;;;;;;-144.99;93.55;52452.16;4952592;28;20695;-73
2021/03/05 00:33:48;;;;;;;4.67;2.13;;;;;;;-144.99;93.72;52395.09;4954661;28;20632;-74
2021/03/05 00:36:15;;;;;;;8.30;2.30;;;;;;;-144.99;93.73;52456.25;4964904;28;20632;-74
2021/03/05 00:38:41;;;;;;;4.03;1.27;;;;;;;-144.99;93.96;52439.94;4954506;28;21265;-74
2021/03/05 00:41:07;;;;;;;1.20;0.63;;;;;;;-144.99;93.82;52382.88;4966531;28;20631;-75
2021/03/05 00:43:33;;;;;;;6.27;2.20;;;;;;;-144.99;94.08;52376.75;4954888;28;20628;-75
2021/03/05 00:45:59;;;;;;;6.57;1.90;;;;;;;-144.99;94.10;52413.44;4954584;28;20611;-75
2021/03/05 00:48:25;;;;;;;1.80;1.33;;;;;;;-144.99;94.13;52425.66;4962124;28;20655;-75
2021/03/05 00:50:52;;;;;;;5.43;1.57;;;;;;;-144.99;94.36;52411.41;4953687;28;20639;-76
2021/03/05 00:53:18;;;;;;;5.40;1.63;;;;;;;-144.99;94.54;52407.31;4954488;28;20635;-74
2021/03/05 00:55:44;;;;;;;3.13;1.73;;;;;;;-144.99;94.55;52407.31;4959671;28;20714;-73
2021/03/05 00:58:10;;;;;;;4.23;1.73;;;;;;;-144.99;94.57;52407.31;4974229;28;20687;-74
2021/03/05 01:00:37;;;;;;;4.30;1.53;;;;;;;-144.99;94.77;52403.25;4973439;28;20650;-75
2021/03/05 01:03:04;;;;;;;7.10;1.63;;;;;;;-144.99;94.79;52399.19;4961130;28;20658;-72
2021/03/05 01:05:30;;;;;;;16.17;2.53;;;;;;;-144.99;94.85;52382.88;4953803;28;20628;-71
2021/03/05 01:07:57;;;;;;;6.43;2.07;;;;;;;-144.99;95.09;52346.19;4954058;28;20825;-73
2021/03/05 01:10:23;;;;;;;5.77;2.07;;;;;;;-144.99;94.87;52419.56;4955094;28;20632;-74
2021/03/05 01:12:49;;;;;;;9.60;1.73;;;;;;;-144.99;95.21;52411.41;4959764;28;20638;-73
2021/03/05 01:15:15;;;;;;;2.93;2.10;;;;;;;-144.99;95.16;52395.09;4960183;28;20632;-72
2021/03/05 01:17:42;;;;;;;5.57;2.03;;;;;;;-144.99;95.21;52374.72;4954699;28;20664;-74
2021/03/05 01:20:12;;;;;;;3.97;1.73;;;;;;;-144.99;95.16;52391.03;4953225;28;21032;-71
2021/03/05 01:22:38;;;;;;;3.40;1.30;;;;;;;-144.99;95.23;52374.72;4953877;28;20628;-73
2021/03/05 01:25:08;;;;;;;3.97;2.10;;;;;;;-144.99;95.41;52399.19;4955029;28;20636;-74
2021/03/05 01:27:35;;;;;;;7.17;2.40;;;;;;;-144.99;95.56;52419.56;4954760;28;20972;-73
2021/03/05 01:30:01;;;;;;;3.33;1.70;;;;;;;-144.99;95.63;52380.84;4973070;28;20686;-72
2021/03/05 01:32:27;;;;;;;4.80;1.93;;;;;;;-144.99;95.58;52386.94;4960223;28;20628;-74
2021/03/05 01:34:53;;;;;;;5.77;1.60;;;;;;;-144.99;95.48;52391.03;4965152;28;21242;-74
2021/03/05 01:37:19;;;;;;;9.10;2.37;;;;;;;-144.99;95.53;52415.47;4954368;28;20667;-74
2021/03/05 01:39:45;;;;;;;3.33;1.43;;;;;;;-144.99;95.49;52435.88;4954551;28;20651;-74
2021/03/05 01:42:12;;;;;;;3.80;2.03;;;;;;;-144.99;95.41;52435.88;4954462;28;20849;-74
2021/03/05 01:44:38;;;;;;;13.07;1.87;;;;;;;-144.99;95.40;52427.72;4954335;28;20636;-73
2021/03/05 01:47:04;;;;;;;7.53;2.43;;;;;;;-144.99;95.07;52370.63;4963239;28;20670;-74
2021/03/05 01:49:30;;;;;;;6.57;1.77;;;;;;;-144.99;95.51;52439.94;4955297;28;20903;-72
2021/03/05 01:51:56;;;;;;;3.40;1.77;;;;;;;-144.99;95.39;52419.56;4953378;28;21099;-75
2021/03/05 01:54:22;;;;;;;4.90;1.97;;;;;;;-144.99;95.28;52419.56;4954128;28;20752;-72
2021/03/05 01:56:50;;;;;;;4.63;2.20;;;;;;;-144.99;95.48;52431.78;4967667;28;20636;-72
2021/03/05 01:59:25;;;;;;;4.53;2.00;;;;;;;-144.99;95.38;52407.31;4972069;28;20224;-73
2021/03/05 02:01:51;;;;;;;6.07;2.03;;;;;;;-144.99;95.42;52374.72;4957506;28;21109;-74
2021/03/05 02:04:17;;;;;;;8.30;2.10;;;;;;;-144.99;95.32;52374.72;4955576;28;20636;-73
2021/03/05 02:06:43;;;;;;;10.70;4.03;;;;;;;-144.99;95.35;52386.94;4951880;28;20681;-73
2021/03/05 02:09:09;;;;;;;5.17;2.67;;;;;;;-144.99;95.42;52397.13;4952499;28;20641;-73
2021/03/05 02:11:36;;;;;;;1.87;0.90;;;;;;;-144.99;95.42;52419.56;4953193;28;20639;-73
2021/03/05 02:14:05;;;;;;;5.27;2.13;;;;;;;-144.99;95.41;52425.66;4962450;28;20715;-74
2021/03/05 02:16:40;;;;;;;4.40;1.83;;;;;;;-144.99;95.42;52409.38;4952387;28;20959;-73
2021/03/05 02:19:21;;;;;;;2.83;1.33;;;;;;;-144.99;95.56;52462.34;4957970;28;20706;-73
2021/03/05 02:22:12;;;;;;;2.60;1.97;;;;;;;-144.99;95.62;52382.88;4961204;28;20639;-73
2021/03/05 02:25:13;;;;;;;7.07;2.00;;;;;;;-144.99;95.57;52407.31;4961394;29;20620;-74
2021/03/05 02:28:10;;;;;;;5.53;2.13;;;;;;;-144.99;95.49;52427.72;4970627;28;20622;-73
2021/03/05 02:30:57;;;;;;;7.07;1.93;;;;;;;-144.99;95.68;52444.03;4945695;28;20721;-74
2021/03/05 02:33:27;;;;;;;3.20;1.80;;;;;;;-144.99;95.79;52391.03;4954963;28;20627;-73
2021/03/05 02:35:56;;;;;;;5.03;2.20;;;;;;;-144.99;95.77;52431.78;4970402;28;20935;-73
2021/03/05 02:38:24;;;;;;;13.87;2.07;;;;;;;-144.99;95.74;52448.09;4958451;28;21324;-73
2021/03/05 02:40:53;;;;;;;3.47;1.43;;;;;;;-144.99;95.72;52384.91;4969448;28;21073;-73
2021/03/05 02:43:22;;;;;;;5.57;2.00;;;;;;;-144.99;95.86;52417.53;4961560;28;20672;-72
2021/03/05 02:45:55;;;;;;;5.10;3.50;;;;;;;-144.99;95.74;52425.66;4962275;28;20698;-73
2021/03/05 02:48:25;;;;;;;3.00;1.43;;;;;;;-144.99;95.77;52399.19;4962828;28;20743;-73
2021/03/05 02:50:55;;;;;;;3.40;1.47;;;;;;;-144.99;95.82;52403.25;4960465;28;20640;-74
2021/03/05 02:53:24;;;;;;;2.97;1.87;;;;;;;-144.99;95.95;52407.31;4959594;28;20974;-75
2021/03/05 02:55:54;;;;;;;4.93;1.33;;;;;;;-144.99;95.81;52378.78;4965940;28;20642;-73
2021/03/05 02:58:24;;;;;;;5.20;1.43;;;;;;;-144.99;95.92;52417.53;4980531;28;20690;-72
2021/03/05 03:00:52;;;;;;;6.90;2.27;;;;;;;-144.99;95.84;52411.41;4977073;28;20751;-74
2021/03/05 03:03:20;;;;;;;3.03;1.00;;;;;;;-144.99;95.99;52407.31;4962321;28;20721;-75
2021/03/05 03:05:50;;;;;;;5.67;1.60;;;;;;;-144.99;95.85;52372.69;4953673;28;20645;-73
2021/03/05 03:08:17;;;;;;;7.87;1.97;;;;;;;-144.99;96.09;52395.09;4954703;28;20668;-74
2021/03/05 03:10:45;;;;;;;2.80;1.80;;;;;;;-144.99;96.16;52399.19;4953350;28;21172;-75
2021/03/05 03:13:12;;;;;;;4.90;1.83;;;;;;;-144.99;96.30;52419.56;4961106;28;21016;-73
2021/03/05 03:15:39;;;;;;;5.53;2.13;;;;;;;-144.99;96.32;52407.31;4958570;28;20631;-72
2021/03/05 03:18:10;;;;;;;2.43;1.83;;;;;;;-144.99;96.18;52407.31;4961053;28;20676;-74
2021/03/05 03:20:37;;;;;;;2.60;1.37;;;;;;;-144.99;96.31;52456.25;4951457;28;20667;-73
2021/03/05 03:23:04;;;;;;;4.83;1.97;;;;;;;-144.99;96.55;52419.56;4953489;28;20663;-74
2021/03/05 03:25:30;;;;;;;4.77;3.37;;;;;;;-144.99;96.59;52397.13;4953341;28;20642;-73
2021/03/05 03:27:57;;;;;;;5.77;1.77;;;;;;;-144.99;96.87;52393.06;4952508;28;20664;-72
2021/03/05 03:30:25;;;;;;;9.83;2.73;;;;;;;-144.99;96.66;52403.25;4956102;28;20634;-73
2021/03/05 03:32:52;;;;;;;7.20;2.47;;;;;;;-144.99;96.71;52431.78;4954770;28;20729;-73
2021/03/05 03:35:19;;;;;;;8.83;2.20;;;;;;;-144.99;96.87;52431.78;4963454;28;21221;-72
2021/03/05 03:37:46;;;;;;;3.87;2.23;;;;;;;-144.99;97.00;52439.94;4951500;28;21056;-73
2021/03/05 03:40:17;;;;;;;3.37;1.97;;;;;;;-144.99;96.88;52407.31;4958388;28;21185;-73
2021/03/05 03:42:44;;;;;;;4.37;2.53;;;;;;;-144.99;97.10;52411.41;4957772;28;20621;-73
2021/03/05 03:45:12;;;;;;;6.40;2.30;;;;;;;-144.99;97.10;52386.94;4951514;28;20667;-72
2021/03/05 03:47:39;;;;;;;6.27;2.47;;;;;;;-144.99;97.27;52427.72;4961635;28;20655;-72
2021/03/05 03:50:10;;;;;;;5.30;2.33;;;;;;;-144.99;97.22;52393.06;4965476;28;20627;-73
2021/03/05 03:52:41;;;;;;;3.50;1.70;;;;;;;-144.99;97.34;52431.78;4965107;28;20616;-72
2021/03/05 03:55:09;;;;;;;4.87;2.10;;;;;;;-144.99;97.30;52350.25;4963212;28;20731;-72
2021/03/05 03:57:39;;;;;;;7.03;2.77;;;;;;;-144.99;97.45;52439.94;4977933;28;20671;-73
2021/03/05 04:00:07;;;;;;;3.70;1.90;;;;;;;-144.99;97.26;52391.03;4972836;28;21057;-72
2021/03/05 04:02:35;;;;;;;4.27;2.00;;;;;;;-144.99;97.43;52362.50;4964786;28;20628;-73
2021/03/05 04:05:03;;;;;;;2.27;1.83;;;;;;;-144.99;97.54;52446.06;4952788;28;20676;-72
2021/03/05 04:07:31;;;;;;;5.00;2.43;;;;;;;-144.99;97.45;52386.94;4954689;28;20656;-73
2021/03/05 04:10:00;;;;;;;4.87;1.97;;;;;;;-144.99;97.43;52407.31;4956344;28;20624;-73
2021/03/05 04:12:28;;;;;;;5.50;1.53;;;;;;;-144.99;97.40;52427.72;4957051;28;20632;-74
2021/03/05 04:14:55;;;;;;;6.70;2.57;;;;;;;-144.99;97.44;52378.78;4963771;28;20635;-72
2021/03/05 04:17:21;;;;;;;6.70;2.33;;;;;;;-144.99;97.49;52419.56;4955401;28;20632;-75
2021/03/05 04:19:48;;;;;;;12.10;2.63;;;;;;;-144.99;97.34;52415.47;4970199;28;20630;-74
2021/03/05 04:22:16;;;;;;;5.40;2.23;;;;;;;-144.99;97.42;52419.56;4972433;28;20807;-74
2021/03/05 04:24:42;;;;;;;7.83;3.10;;;;;;;-144.99;97.50;52403.25;4974203;28;20613;-73
2021/03/05 04:27:08;;;;;;;7.00;2.07;;;;;;;-144.99;97.41;52423.63;4965033;28;20632;-73
2021/03/05 04:29:34;;;;;;;4.07;2.30;;;;;;;-144.99;97.43;52415.47;4954619;28;20656;-71
2021/03/05 04:32:01;;;;;;;6.23;3.50;;;;;;;-144.99;97.24;52403.25;4955114;28;20636;-73
2021/03/05 04:34:27;;;;;;;7.30;1.90;;;;;;;-144.99;97.25;52427.72;4966677;28;20709;-72
2021/03/05 04:36:54;;;;;;;6.97;2.07;;;;;;;-144.99;97.18;52407.31;4953589;28;20644;-73
2021/03/05 04:39:20;;;;;;;5.37;2.07;;;;;;;-144.99;97.18;52411.41;4955153;28;20683;-72
2021/03/05 04:41:46;;;;;;;9.97;3.07;;;;;;;-144.99;97.15;52415.47;4967135;28;21228;-72
2021/03/05 04:44:12;;;;;;;5.40;3.50;;;;;;;-144.99;97.08;52407.31;4954359;28;20636;-74
2021/03/05 04:46:38;;;;;;;5.10;2.87;;;;;;;-144.99;97.24;52411.41;4953615;28;20628;-72
2021/03/05 04:49:05;;;;;;;6.43;2.97;;;;;;;-144.99;97.22;52444.03;4953670;28;20655;-71
2021/03/05 04:51:32;;;;;;;6.77;3.70;;;;;;;-144.99;97.23;52425.66;4954432;28;20632;-71
2021/03/05 04:53:58;;;;;;;5.50;3.50;;;;;;;-144.99;97.11;52391.03;4954253;28;20624;-71
2021/03/05 04:56:24;;;;;;;6.83;2.43;;;;;;;-144.99;97.13;52374.72;4964659;28;21162;-73
2021/03/05 04:58:50;;;;;;;9.23;2.60;;;;;;;-144.99;97.04;52386.94;4973154;28;20674;-71
2021/03/05 05:01:16;;;;;;;5.67;1.87;;;;;;;-144.99;96.98;52374.72;4967055;28;21051;-71
2021/03/05 05:03:42;;;;;;;5.50;2.20;;;;;;;-144.99;97.08;52382.88;4960603;28;20783;-72
2021/03/05 05:06:09;;;;;;;3.50;2.23;;;;;;;-144.99;96.82;52399.19;4951570;28;20643;-71
2021/03/05 05:08:35;;;;;;;4.43;2.73;;;;;;;-144.99;96.99;52395.09;4953533;28;20660;-72
2021/03/05 05:11:01;;;;;;;7.07;2.87;;;;;;;-144.99;96.91;52380.84;4954100;28;20636;-73
2021/03/05 05:13:28;;;;;;;6.20;2.37;;;;;;;-144.99;96.78;52403.25;4963602;28;20631;-74
2021/03/05 05:15:54;;;;;;;7.43;4.70;;;;;;;-144.99;96.80;52407.31;4953988;28;20978;-73
2021/03/05 05:18:20;;;;;;;7.50;3.10;;;;;;;-144.99;96.82;52415.47;4953530;28;20668;-73
2021/03/05 05:20:46;;;;;;;3.10;2.17;;;;;;;-144.99;96.80;52415.47;4953790;28;20642;-71
2021/03/05 05:23:13;;;;;;;6.03;2.97;;;;;;;-144.99;96.73;52386.94;4954021;28;20726;-72
2021/03/05 05:25:39;;;;;;;5.27;2.17;;;;;;;-144.99;96.82;52419.56;4953791;28;20619;-74
2021/03/05 05:28:05;;;;;;;7.20;3.10;;;;;;;-144.99;96.63;52393.06;4953830;28;20671;-72
2021/03/05 05:30:31;;;;;;;7.90;2.60;;;;;;;-144.99;96.57;52393.06;4952861;28;20640;-71
2021/03/05 05:32:57;;;;;;;8.10;3.07;;;;;;;-144.99;96.56;52431.78;4954949;28;20636;-74
2021/03/05 05:35:24;;;;;;;2.43;1.73;;;;;;;-144.99;96.51;52407.31;4964465;28;20660;-72
2021/03/05 05:37:50;;;;;;;7.33;2.47;;;;;;;-144.99;96.49;52423.63;4953231;28;20675;-73
2021/03/05 05:40:17;;;;;;;7.30;2.30;;;;;;;-144.99;96.54;52435.88;4960646;28;20630;-73
2021/03/05 05:42:47;;;;;;;4.37;2.47;;;;;;;-144.99;96.40;52441.97;4959866;28;20639;-72
2021/03/05 05:45:13;;;;;;;7.23;2.37;;;;;;;-144.99;96.40;52444.03;4953409;28;21201;-74
2021/03/05 05:47:40;;;;;;;8.00;3.00;;;;;;;-144.99;96.40;52439.94;4953781;28;20640;-73
2021/03/05 05:50:08;;;;;;;5.80;2.33;;;;;;;-144.99;96.40;52427.72;4960808;28;21093;-73
2021/03/05 05:52:35;;;;;;;6.50;2.20;;;;;;;-144.99;96.45;52427.72;4966824;28;20628;-73
2021/03/05 05:55:02;;;;;;;9.57;2.87;;;;;;;-144.99;96.35;52452.16;4965989;28;20616;-72
2021/03/05 05:57:31;;;;;;;5.47;3.07;;;;;;;-144.99;96.21;52393.06;4982816;28;21026;-72
2021/03/05 05:59:57;;;;;;;5.53;1.73;;;;;;;-144.99;96.15;52407.31;4973596;28;20611;-71
2021/03/05 06:02:24;;;;;;;5.73;4.30;;;;;;;-144.99;96.05;52429.75;4965648;28;20627;-73
2021/03/05 06:04:53;;;;;;;6.37;2.87;;;;;;;-144.99;96.10;52419.56;4952819;28;20723;-71
2021/03/05 06:07:20;;;;;;;10.50;2.67;;;;;;;-144.99;96.16;52395.09;4954896;28;20627;-73
2021/03/05 06:09:49;;;;;;;8.23;2.60;;;;;;;-144.99;96.05;52452.16;4962882;28;20656;-73
2021/03/05 06:12:15;;;;;;;7.20;3.43;;;;;;;-144.99;96.01;52423.63;4953230;28;21067;-74
2021/03/05 06:14:43;;;;;;;7.90;3.23;;;;;;;-144.99;95.93;52403.25;4953254;28;20993;-73
2021/03/05 06:17:10;;;;;;;7.43;4.93;;;;;;;-144.99;95.95;52429.75;4951816;28;20628;-72
2021/03/05 06:19:36;;;;;;;6.50;2.50;;;;;;;-144.99;95.85;52395.09;4964047;28;20703;-74
2021/03/05 06:22:04;;;;;;;3.17;2.30;;;;;;;-144.99;95.82;52439.94;4954901;28;20638;-73
2021/03/05 06:24:42;;;;;;;12.87;3.47;;;;;;;-144.99;96.05;52419.56;4952510;28;20737;-74
2021/03/05 06:27:09;;;;;;;8.37;3.50;;;;;;;-144.99;95.65;52427.72;4954477;28;20656;-74
2021/03/05 06:29:42;;;;;;;6.27;2.50;;;;;;;-144.99;95.70;52448.09;4954268;28;20759;-73
2021/03/05 06:32:13;;;;;;;9.10;4.00;;;;;;;-144.99;95.58;52427.72;4956080;28;21202;-73
2021/03/05 06:34:46;;;;;;;9.27;2.67;;;;;;;-144.99;95.30;52419.56;4965299;28;20625;-73
2021/03/05 06:37:13;;;;;;;5.87;2.63;;;;;;;-144.99;95.21;52419.56;4951470;28;20648;-73
2021/03/05 06:39:39;;;;;;;9.30;3.40;;;;;;;-144.99;95.30;52386.94;4952437;28;20676;-72
2021/03/05 06:42:09;;;;;;;5.33;2.57;;;;;;;-144.99;94.99;52427.72;4962560;28;20989;-72
2021/03/05 06:44:37;;;;;;;6.33;2.93;;;;;;;-144.99;94.65;52423.63;4952188;28;20629;-74
2021/03/05 06:47:12;;;;;;;5.50;3.13;;;;;;;-144.99;94.51;52388.97;4951883;28;20691;-72
2021/03/05 06:49:39;;;;;;;3.73;2.23;;;;;;;-144.99;94.22;52325.81;4951144;28;20656;-73
2021/03/05 06:52:06;;;;;;;6.73;3.53;;;;;;;-144.99;93.88;52423.63;4950463;28;20629;-70
2021/03/05 06:54:34;;;;;;;5.27;3.30;;;;;;;-144.99;93.31;52388.97;4952478;28;20628;-72
2021/03/05 06:57:01;;;;;;;8.33;3.43;;;;;;;-144.99;92.75;52382.88;4967024;28;20650;-72
2021/03/05 06:59:34;;;;;;;4.23;1.83;;;;;;;-144.99;92.47;52423.63;4970412;28;20766;-73
2021/03/05 07:02:00;;;;;;;10.83;2.97;;;;;;;-144.99;91.89;52431.78;4964411;28;20738;-74
2021/03/05 07:04:29;;;;;;;4.70;2.77;;;;;;;-144.99;91.38;52431.78;4953355;28;20691;-73
2021/03/05 07:07:00;;;;;;;3.43;2.07;;;;;;;-144.99;90.47;52407.31;4950317;28;20986;-73
2021/03/05 07:09:29;;;;;;;5.87;2.90;;;;;;;-144.99;89.60;52348.22;4951896;28;20715;-72
2021/03/05 07:11:55;;;;;;;4.47;1.77;;;;;;;-144.99;88.35;52395.09;4952789;28;20620;-75
2021/03/05 07:14:32;;;;;;;7.07;2.53;;;;;;;-144.99;86.14;52421.59;4962237;28;20656;-73
2021/03/05 07:16:59;;;;;;;4.73;2.30;;;;;;;-144.99;84.37;52401.22;4951247;28;20620;-74
2021/03/05 07:19:28;;;;;;;5.07;2.10;;;;;;;-144.99;84.38;52323.75;4950187;28;20699;-73
2021/03/05 07:21:56;;;;;;;7.03;3.57;;;;;;;-144.99;83.46;52397.13;4950147;28;20624;-74
2021/03/05 07:24:23;;;;;;;3.07;2.03;;;;;;;-144.99;82.59;52386.94;4956714;28;20640;-73
2021/03/05 07:26:53;;;;;;;6.53;2.47;;;;;;;-144.99;80.97;52386.94;4953400;28;20620;-73
2021/03/05 07:29:24;;;;;;;7.10;2.43;;;;;;;-144.99;79.90;52374.72;4951184;28;21014;-75
2021/03/05 07:31:58;;;;;;;3.73;1.67;;;;;;;-144.99;79.67;52362.50;4960131;28;20643;-74
2021/03/05 07:34:27;;;;;;;6.27;2.77;;;;;;;-144.99;78.75;52382.88;4962096;28;20710;-74
2021/03/05 07:36:57;;;;;;;4.87;2.90;;;;;;;-144.99;76.59;52407.31;4952698;28;20635;-75
2021/03/05 07:39:28;;;;;;;7.30;2.50;;;;;;;-144.99;75.99;52419.56;4951861;28;20679;-77
2021/03/05 07:41:55;;;;;;;4.00;2.07;;;;;;;-144.99;74.93;52386.94;4969983;28;20620;-74
2021/03/05 07:44:23;;;;;;;5.83;2.37;;;;;;;-144.99;73.89;52366.56;4958305;28;20632;-74
2021/03/05 07:46:49;;;;;;;6.63;1.60;;;;;;;-144.99;72.63;52397.13;4958423;28;20624;-72
2021/03/05 07:49:17;;;;;;;7.53;3.93;;;;;;;-144.99;72.15;52382.88;4957934;28;21105;-73
2021/03/05 07:51:44;;;;;;;5.23;2.20;;;;;;;-144.99;71.77;52413.44;4957813;28;20704;-72
2021/03/05 07:54:12;;;;;;;4.33;2.30;;;;;;;-144.99;70.78;52352.28;4958949;28;20612;-73
2021/03/05 07:56:39;;;;;;;4.43;2.23;;;;;;;-144.99;69.75;52338.03;4970803;28;20758;-73
2021/03/05 07:59:05;;;;;;;3.20;2.33;;;;;;;-144.99;69.17;52325.81;4977948;28;20693;-72
2021/03/05 08:01:55;;;;;;;3.87;2.33;;;;;;;-144.99;68.66;52356.38;4978242;28;20627;-74
2021/03/05 08:04:21;;;;;;;4.70;2.87;;;;;;;-144.99;67.18;52370.63;4960641;28;20728;-72
2021/03/05 08:07:08;;;;;;;3.87;2.00;;;;;;;-144.99;68.16;52382.88;4957412;28;20620;-73
2021/03/05 08:09:36;;;;;;;4.70;2.03;;;;;;;-144.99;68.38;52411.41;4957943;28;20979;-73
2021/03/05 08:12:36;;;;;;;6.70;1.90;;;;;;;-144.99;69.71;52366.56;4958077;28;20628;-75
2021/03/05 08:15:21;;;;;;;6.23;1.93;;;;;;;-144.99;69.94;52321.72;4958520;28;20742;-74
2021/03/05 08:17:49;;;;;;;4.17;2.37;;;;;;;-144.99;68.89;52376.75;4960673;29;21053;-75
2021/03/05 08:20:50;;;;;;;8.40;2.90;;;;;;;-144.99;71.15;52374.72;4959389;29;20727;-71
2021/03/05 08:23:17;;;;;;;3.70;2.13;;;;;;;-144.99;66.33;52317.66;4959689;29;20615;-72
2021/03/05 08:25:54;;;;;;;4.93;2.00;;;;;;;-144.99;67.40;52342.09;4960580;29;20731;-76
2021/03/05 08:28:38;;;;;;;5.13;2.07;;;;;;;-144.99;65.32;52342.09;4959208;29;20690;-73
2021/03/05 08:31:32;;;;;;;4.03;1.80;;;;;;;-144.99;63.67;52325.81;4959014;29;20628;-74
2021/03/05 08:34:29;;;;;;;5.83;2.43;;;;;;;-144.99;62.84;52305.41;4966596;28;20208;-72
2021/03/05 08:36:55;;;;;;;2.77;1.40;;;;;;;-144.99;61.96;52342.09;4960622;28;20635;-73
2021/03/05 08:39:25;;;;;;;5.47;1.83;;;;;;;-144.99;60.52;52336.00;4958219;28;20704;-77
2021/03/05 08:42:21;;;;;;;5.13;2.13;;;;;;;-144.99;58.88;52319.69;4970820;28;20229;-74
2021/03/05 08:45:16;;;;;;;3.90;2.47;;;;;;;-144.99;57.93;52354.34;4956300;28;20579;-76
2021/03/05 08:47:44;;;;;;;4.00;2.23;;;;;;;-144.99;56.29;52342.09;4958343;28;20267;-77
2021/03/05 08:50:12;;;;;;;2.77;1.30;;;;;;;-144.99;55.66;52346.19;4957077;28;20212;-74
2021/03/05 08:52:43;;;;;;;11.30;2.70;;;;;;;-144.99;55.56;52303.38;4955448;28;20220;-72
2021/03/05 08:55:11;;;;;;;7.83;2.50;;;;;;;-144.99;55.08;52280.97;4956503;28;20232;-74
2021/03/05 08:57:45;;;;;;;6.53;4.07;;;;;;;-144.99;54.88;52325.81;4970654;28;20276;-76
2021/03/05 09:00:14;;;;;;;4.07;2.63;;;;;;;-144.99;53.53;52305.41;4963731;28;20200;-75
2021/03/05 09:02:42;;;;;;;2.10;1.13;;;;;;;-144.99;52.75;52313.56;4977403;28;20273;-76
2021/03/05 09:05:09;;;;;;;2.23;1.90;;;;;;;-144.99;52.73;52317.66;4970466;28;20201;-74
2021/03/05 09:07:49;;;;;;;3.37;1.00;;;;;;;-144.99;51.83;52256.50;4964911;28;20307;-73
2021/03/05 09:10:16;;;;;;;8.90;1.60;;;;;;;-144.99;51.47;52342.09;4962397;28;20239;-72
2021/03/05 09:12:56;;;;;;;2.93;1.37;;;;;;;-144.99;50.77;52350.25;4971802;28;20208;-73
2021/03/05 09:15:27;;;;;;;5.47;1.77;;;;;;;-144.99;50.38;52293.19;4974624;28;20212;-74
2021/03/05 09:17:55;;;;;;;3.03;1.73;;;;;;;-144.99;49.79;52317.66;4973042;28;20257;-72
2021/03/05 09:20:22;;;;;;;1.90;1.00;;;;;;;-144.99;48.98;52309.50;4967213;28;20617;-73
2021/03/05 09:22:48;;;;;;;2.67;0.93;;;;;;;-144.99;48.77;52276.88;4967918;28;20222;-74
2021/03/05 09:25:15;;;;;;;8.40;1.83;;;;;;;-144.99;48.76;52327.84;4968904;28;20244;-73
2021/03/05 09:27:43;;;;;;;5.77;2.20;;;;;;;-144.99;48.17;52327.84;4970007;28;20223;-76
2021/03/05 09:30:17;;;;;;;2.73;1.27;;;;;;;-144.99;47.51;52309.50;4957373;28;20854;-77
2021/03/05 09:32:54;;;;;;;3.33;1.43;;;;;;;-144.99;47.17;52256.50;4959700;28;20204;-74
2021/03/05 09:35:25;;;;;;;9.80;4.07;;;;;;;-144.99;46.29;52321.72;4976484;28;20200;-73
2021/03/05 09:37:51;;;;;;;15.67;7.97;;;;;;;-144.99;45.97;52285.03;4961976;28;20225;-75
2021/03/05 09:40:19;;;;;;;33.13;18.47;;;;;;;-144.99;45.96;52303.38;4960746;28;20224;-75
2021/03/05 09:42:48;;;;;;;15.53;8.50;;;;;;;-144.99;45.34;52280.97;4959597;28;20213;-74
2021/03/05 09:45:32;;;;;;;9.80;4.97;;;;;;;-144.99;44.56;52280.97;4961690;28;20623;-75
2021/03/05 09:48:00;;;;;;;6.43;4.37;;;;;;;-144.99;43.75;52285.03;4956176;28;20288;-75
2021/03/05 09:50:26;;;;;;;4.50;1.80;;;;;;;-144.99;42.89;52252.44;4952276;28;20205;-73
2021/03/05 09:52:53;;;;;;;5.83;1.80;;;;;;;-144.99;42.33;52248.34;4952773;28;20348;-73
2021/03/05 09:55:28;;;;;;;4.50;3.07;;;;;;;-144.99;41.38;52211.66;4955328;28;20267;-77
2021/03/05 09:57:56;;;;;;;7.17;2.03;;;;;;;-144.99;40.55;52264.66;4967172;28;20259;-74
2021/03/05 10:00:32;;;;;;;1.57;1.23;;;;;;;-144.99;39.67;52272.81;4963487;28;20204;-74
2021/03/05 10:03:05;;;;;;;3.53;1.40;;;;;;;-144.99;38.94;52201.47;4965969;28;20200;-76
2021/03/05 10:05:31;;;;;;;6.57;3.13;;;;;;;-144.99;38.51;52227.97;4971199;28;20270;-75
2021/03/05 10:07:57;;;;;;;4.33;0.97;;;;;;;-144.99;37.49;52191.28;4973352;28;20747;-76
2021/03/05 10:10:24;;;;;;;4.93;2.33;;;;;;;-144.99;37.36;52219.81;4957901;28;20259;-75
2021/03/05 10:12:53;;;;;;;9.13;3.37;;;;;;;-144.99;36.39;52223.88;4958428;28;20246;-75
2021/03/05 10:15:20;;;;;;;9.07;6.67;;;;;;;-144.99;35.29;52219.81;4958478;28;20204;-75
2021/03/05 10:17:47;;;;;;;5.43;2.33;;;;;;;-144.99;34.70;52215.75;4953806;28;20293;-75
2021/03/05 10:20:15;;;;;;;5.33;1.97;;;;;;;-144.99;33.76;52246.31;4967073;28;20291;-74
2021/03/05 10:22:41;;;;;;;8.50;4.87;;;;;;;-144.99;33.77;52223.88;4952992;29;20292;-74
2021/03/05 10:25:11;;;;;;;5.90;1.33;;;;;;;-144.99;32.92;52191.28;4953651;28;20301;-75
2021/03/05 10:27:41;;;;;;;4.10;0.77;;;;;;;-144.99;32.98;52187.19;4954551;28;20216;-76
2021/03/05 10:30:08;;;;;;;2.20;1.33;;;;;;;-144.99;31.87;52203.50;4966777;28;20752;-75
2021/03/05 10:32:39;;;;;;;3.53;1.13;;;;;;;-144.99;31.71;52158.66;4956637;28;20277;-76
2021/03/05 10:35:09;;;;;;;1.70;0.73;;;;;;;-144.99;30.99;52134.22;4973790;28;20292;-75
2021/03/05 10:37:38;;;;;;;1.73;0.90;;;;;;;-144.99;30.61;52183.13;4992866;28;20300;-79
2021/03/05 10:40:06;;;;;;;2.30;0.97;;;;;;;-144.99;29.75;52158.66;4973777;28;20256;-75
2021/03/05 10:42:32;;;;;;;3.37;1.40;;;;;;;-144.99;29.45;52130.13;4971745;28;20306;-75
2021/03/05 10:44:58;;;;;;;2.67;1.37;;;;;;;-144.99;28.84;52097.53;4971349;28;20240;-77
2021/03/05 10:47:25;;;;;;;3.23;0.83;;;;;;;-144.99;28.69;52097.53;4969641;28;20216;-75
2021/03/05 10:49:51;;;;;;;1.90;0.90;;;;;;;-144.99;28.32;52077.16;4968807;28;20579;-77
2021/03/05 10:52:21;;;;;;;2.67;0.70;;;;;;;-144.99;28.35;52075.09;4955435;28;20690;-78
2021/03/05 10:54:49;;;;;;;5.47;1.00;;;;;;;-144.99;27.76;52048.63;4954214;28;20675;-80
2021/03/05 10:57:16;;;;;;;3.90;1.33;;;;;;;-144.99;27.07;52040.47;4961107;28;20286;-76
2021/03/05 10:59:43;;;;;;;1.30;0.60;;;;;;;-144.99;27.04;52056.78;4969873;28;20318;-77
2021/03/05 11:02:10;;;;;;;4.57;1.07;;;;;;;-144.99;26.53;52036.38;4954487;28;20216;-77
2021/03/05 11:04:36;;;;;;;1.23;0.57;;;;;;;-144.99;27.09;52048.63;4959918;28;20214;-79
2021/03/05 11:07:03;;;;;;;5.17;0.80;;;;;;;-144.99;26.96;52032.31;4966059;28;20208;-79
2021/03/05 11:09:29;;;;;;;1.63;0.87;;;;;;;-144.99;26.49;52032.31;4969834;28;20220;-76
2021/03/05 11:11:57;;;;;;;1.90;0.87;;;;;;;-144.99;26.21;52036.38;4972848;28;20696;-76
2021/03/05 11:14:23;;;;;;;1.67;0.80;;;;;;;-144.99;25.97;52036.38;4967825;28;20205;-77
2021/03/05 11:16:50;;;;;;;2.03;1.07;;;;;;;-144.99;26.23;52028.22;4972717;28;20200;-74
2021/03/05 11:19:17;;;;;;;5.53;1.13;;;;;;;-144.99;26.20;52007.84;4976528;28;20235;-74
2021/03/05 11:21:43;;;;;;;2.90;0.90;;;;;;;-144.99;25.60;52048.63;4979502;28;20200;-77
2021/03/05 11:24:10;;;;;;;3.90;1.33;;;;;;;-144.99;25.57;52016.00;4980817;28;20208;-76
2021/03/05 11:26:37;;;;;;;5.03;0.90;;;;;;;-144.99;25.31;52003.78;4980859;28;20208;-78